createdAt,value
2022-09-20T00:02:59.464Z,13.60
2022-09-20T00:08:03.032Z,13.60
2022-09-20T00:13:08.786Z,13.50
2022-09-20T00:18:12.370Z,13.40
2022-09-20T00:23:15.788Z,13.40
2022-09-20T00:28:19.974Z,13.30
2022-09-20T00:33:24.146Z,13.30
2022-09-20T00:38:27.000Z,13.20
2022-09-20T00:43:38.816Z,13.20
2022-09-20T00:48:41.712Z,13.20
2022-09-20T00:53:50.039Z,13.10
2022-09-20T00:59:01.250Z,13.00
2022-09-20T01:04:05.012Z,13.00
2022-09-20T01:09:08.735Z,13.00
2022-09-20T01:14:17.080Z,12.90
2022-09-20T01:19:28.082Z,12.90
2022-09-20T01:24:39.889Z,12.80
2022-09-20T01:29:58.742Z,12.80
2022-09-20T01:35:02.694Z,12.70
2022-09-20T01:40:14.049Z,12.70
2022-09-20T01:45:24.595Z,12.60
2022-09-20T01:50:35.422Z,12.60
2022-09-20T01:56:19.653Z,12.60
2022-09-20T02:01:40.252Z,12.60
2022-09-20T02:07:05.042Z,12.60
2022-09-20T02:12:34.043Z,12.60
2022-09-20T02:17:50.141Z,12.60
2022-09-20T02:23:13.677Z,12.60
2022-09-20T02:28:31.842Z,12.50
2022-09-20T02:34:01.806Z,12.50
2022-09-20T02:39:12.607Z,12.50
2022-09-20T02:44:23.138Z,12.50
2022-09-20T02:49:34.551Z,12.40
2022-09-20T02:54:51.387Z,12.40
2022-09-20T02:59:59.428Z,12.30
2022-09-20T03:05:16.256Z,12.30
2022-09-20T03:10:27.111Z,12.20
2022-09-20T03:15:41.540Z,12.20
2022-09-20T03:20:56.407Z,12.20
2022-09-20T03:26:10.308Z,12.10
2022-09-20T03:31:25.536Z,12.10
2022-09-20T03:36:46.614Z,12.10
2022-09-20T03:42:12.339Z,12.10
2022-09-20T03:47:31.923Z,12.10
2022-09-20T03:53:01.175Z,12.00
2022-09-20T03:58:34.415Z,11.90
2022-09-20T04:03:45.959Z,11.90
2022-09-20T04:09:28.826Z,11.90
2022-09-20T04:14:38.948Z,11.80
2022-09-20T04:19:48.739Z,11.80
2022-09-20T04:24:57.883Z,11.80
2022-09-20T04:30:04.182Z,11.80
2022-09-20T04:35:35.307Z,11.80
2022-09-20T04:40:59.988Z,11.80
2022-09-20T04:46:43.449Z,11.80
2022-09-20T04:52:26.030Z,11.80
2022-09-20T04:58:04.618Z,11.70
2022-09-20T05:03:40.247Z,11.70
2022-09-20T05:09:14.850Z,11.60
2022-09-20T05:14:37.780Z,11.60
2022-09-20T05:19:52.522Z,11.60
2022-09-20T05:25:16.362Z,11.60
2022-09-20T05:30:30.993Z,11.60
2022-09-20T05:35:41.534Z,11.60
2022-09-20T05:41:05.756Z,11.60
2022-09-20T05:46:18.305Z,11.50
2022-09-20T05:51:34.910Z,11.50
2022-09-20T05:56:46.346Z,11.50
2022-09-20T06:02:04.370Z,11.50
2022-09-20T06:07:11.465Z,11.50
2022-09-20T06:12:26.999Z,11.50
2022-09-20T06:17:37.560Z,11.60
2022-09-20T06:22:44.963Z,11.60
2022-09-20T06:27:53.881Z,11.60
2022-09-20T06:33:00.206Z,11.70
2022-09-20T06:38:35.144Z,11.70
2022-09-20T06:43:40.456Z,11.90
2022-09-20T06:48:44.707Z,12.00
2022-09-20T06:53:47.644Z,12.00
2022-09-20T06:58:52.085Z,12.10
2022-09-20T07:03:56.303Z,12.30
2022-09-20T07:08:59.331Z,12.40
2022-09-20T07:14:02.516Z,12.50
2022-09-20T07:19:06.951Z,12.60
2022-09-20T07:24:09.832Z,12.70
2022-09-20T07:29:12.710Z,12.80
2022-09-20T07:34:17.575Z,13.00
2022-09-20T07:39:20.496Z,13.10
2022-09-20T07:44:24.840Z,13.20
2022-09-20T07:49:30.930Z,13.50
2022-09-20T07:54:33.801Z,13.70
2022-09-20T07:59:36.683Z,13.90
2022-09-20T08:04:40.929Z,14.10
2022-09-20T08:09:43.880Z,14.30
2022-09-20T08:14:46.924Z,14.40
2022-09-20T08:19:53.305Z,14.60
2022-09-20T08:24:56.220Z,14.70
2022-09-20T08:30:01.087Z,14.80
2022-09-20T08:35:05.812Z,14.80
2022-09-20T08:40:10.571Z,14.90
2022-09-20T08:45:34.471Z,14.90
2022-09-20T08:50:39.363Z,14.90
2022-09-20T08:55:43.337Z,15.00
2022-09-20T09:00:47.915Z,15.10
2022-09-20T09:05:54.170Z,15.30
2022-09-20T09:10:58.855Z,15.40
2022-09-20T09:16:06.846Z,15.60
2022-09-20T09:21:19.310Z,15.70
2022-09-20T09:26:25.536Z,15.80
2022-09-20T09:31:28.904Z,15.90
2022-09-20T09:36:33.638Z,16.00
2022-09-20T09:41:36.911Z,16.10
2022-09-20T09:46:41.391Z,16.30
2022-09-20T09:52:02.526Z,16.40
2022-09-20T09:57:20.405Z,16.50
2022-09-20T10:02:48.273Z,16.50
2022-09-20T10:08:01.663Z,16.50
2022-09-20T10:13:15.716Z,16.50
2022-09-20T10:18:32.695Z,16.40
2022-09-20T10:24:04.703Z,16.50
2022-09-20T10:29:16.167Z,16.50
2022-09-20T10:34:39.767Z,16.70
2022-09-20T10:39:48.438Z,16.90
2022-09-20T10:45:02.301Z,17.00
2022-09-20T10:50:18.794Z,17.20
2022-09-20T10:55:33.215Z,17.30
2022-09-20T11:00:48.032Z,17.40
2022-09-20T11:06:06.303Z,17.40
2022-09-20T11:11:14.095Z,17.60
2022-09-20T11:16:23.233Z,17.80
2022-09-20T11:21:32.150Z,18.00
2022-09-20T11:26:42.909Z,18.20
2022-09-20T11:31:49.109Z,18.40
2022-09-20T11:36:58.748Z,18.50
2022-09-20T11:42:05.370Z,18.60
2022-09-20T11:47:26.607Z,18.60
2022-09-20T11:52:53.886Z,18.50
2022-09-20T11:58:09.278Z,18.50
2022-09-20T12:03:26.583Z,18.60
2022-09-20T12:08:33.250Z,18.70
2022-09-20T12:13:40.204Z,18.80
2022-09-20T12:19:03.859Z,19.00
2022-09-20T12:24:22.579Z,19.20
2022-09-20T12:30:06.724Z,19.30
2022-09-20T12:36:01.418Z,19.50
2022-09-20T12:41:14.833Z,19.80
2022-09-20T12:46:26.586Z,20.00
2022-09-20T12:51:51.010Z,20.20
2022-09-20T12:56:53.956Z,20.40
2022-09-20T13:02:33.425Z,20.60
2022-09-20T13:07:47.411Z,20.70
2022-09-20T13:12:54.637Z,20.70
2022-09-20T13:18:02.192Z,20.70
2022-09-20T13:23:06.291Z,20.70
2022-09-20T13:28:20.976Z,20.60
2022-09-20T13:33:26.354Z,20.80
2022-09-20T13:38:32.029Z,20.90
2022-09-20T13:43:41.021Z,21.00
2022-09-20T13:48:47.505Z,21.00
2022-09-20T13:53:50.488Z,20.90
2022-09-20T13:58:54.451Z,20.70
2022-09-20T14:04:03.714Z,20.50
2022-09-20T14:09:11.277Z,20.30
2022-09-20T14:14:21.286Z,20.20
2022-09-20T14:19:31.317Z,20.20
2022-09-20T14:24:37.144Z,20.20
2022-09-20T14:29:42.182Z,20.30
2022-09-20T14:34:48.638Z,20.40
2022-09-20T14:39:54.595Z,20.60
2022-09-20T14:44:57.779Z,20.60
2022-09-20T14:50:03.851Z,20.60
2022-09-20T14:55:28.561Z,20.60
2022-09-20T15:00:32.110Z,20.60
2022-09-20T15:05:36.765Z,20.60
2022-09-20T15:10:39.648Z,20.60
2022-09-20T15:15:44.312Z,20.50
2022-09-20T15:20:48.979Z,20.30
2022-09-20T15:25:52.932Z,20.20
2022-09-20T15:30:55.996Z,19.90
2022-09-20T15:36:02.312Z,19.70
2022-09-20T15:41:05.948Z,19.50
2022-09-20T15:46:19.545Z,19.40
2022-09-20T15:51:24.015Z,19.40
2022-09-20T15:56:28.603Z,19.30
2022-09-20T16:01:33.093Z,19.30
2022-09-20T16:06:38.087Z,19.30
2022-09-20T16:11:41.488Z,19.10
2022-09-20T16:16:44.461Z,18.90
2022-09-20T16:21:55.138Z,18.60
2022-09-20T16:27:01.762Z,18.40
2022-09-20T16:32:05.429Z,18.20
2022-09-20T16:37:15.564Z,18.00
2022-09-20T16:42:18.557Z,17.80
2022-09-20T16:47:23.046Z,17.70
2022-09-20T16:52:27.440Z,17.60
2022-09-20T16:57:30.466Z,17.50
2022-09-20T17:02:33.803Z,17.50
2022-09-20T17:07:38.136Z,17.40
2022-09-20T17:12:43.386Z,17.40
2022-09-20T17:17:46.352Z,17.30
2022-09-20T17:22:50.658Z,17.20
2022-09-20T17:27:53.522Z,17.10
2022-09-20T17:32:58.302Z,17.00
2022-09-20T17:38:02.526Z,16.90
2022-09-20T17:43:05.390Z,16.80
2022-09-20T17:48:08.400Z,16.80
2022-09-20T17:53:12.643Z,16.70
2022-09-20T17:58:15.496Z,16.60
2022-09-20T18:03:19.112Z,16.50
2022-09-20T18:08:23.403Z,16.40
2022-09-20T18:13:27.282Z,16.40
2022-09-20T18:18:30.168Z,16.40
2022-09-20T18:23:34.429Z,16.30
2022-09-20T18:28:37.344Z,16.30
2022-09-20T18:33:42.279Z,16.20
2022-09-20T18:38:46.795Z,16.10
2022-09-20T18:43:49.668Z,16.10
2022-09-20T18:48:53.611Z,16.00
2022-09-20T18:53:58.842Z,16.00
2022-09-20T18:59:04.420Z,15.90
2022-09-20T19:04:18.538Z,15.80
2022-09-20T19:09:31.370Z,15.70
2022-09-20T19:14:45.610Z,15.70
2022-09-20T19:19:55.533Z,15.70
2022-09-20T19:25:16.077Z,15.60
2022-09-20T19:30:19.989Z,15.50
2022-09-20T19:35:29.356Z,15.50
2022-09-20T19:40:44.779Z,15.40
2022-09-20T19:45:55.510Z,15.40
2022-09-20T19:51:00.906Z,15.30
2022-09-20T19:56:14.359Z,15.30
2022-09-20T20:01:18.371Z,15.30
2022-09-20T20:06:29.003Z,15.30
2022-09-20T20:11:41.948Z,15.20
2022-09-20T20:17:00.810Z,15.10
2022-09-20T20:22:12.275Z,15.10
2022-09-20T20:27:17.623Z,15.10
2022-09-20T20:32:20.492Z,15.10
2022-09-20T20:37:26.214Z,15.10
2022-09-20T20:42:30.438Z,15.10
2022-09-20T20:47:34.036Z,15.00
2022-09-20T20:52:36.910Z,15.00
2022-09-20T20:57:41.130Z,15.00
2022-09-20T21:02:45.005Z,15.00
2022-09-20T21:07:51.686Z,14.90
2022-09-20T21:12:56.523Z,14.90
2022-09-20T21:17:59.400Z,14.90
2022-09-20T21:23:02.260Z,14.80
2022-09-20T21:28:06.553Z,14.80
2022-09-20T21:33:09.440Z,14.70
2022-09-20T21:38:12.325Z,14.70
2022-09-20T21:43:17.179Z,14.60
2022-09-20T21:48:20.059Z,14.50
2022-09-20T21:53:22.923Z,14.40
2022-09-20T21:58:27.530Z,14.30
2022-09-20T22:03:38.306Z,14.20
2022-09-20T22:08:46.435Z,14.00
2022-09-20T22:13:52.438Z,13.90
2022-09-20T22:18:55.849Z,13.70
2022-09-20T22:24:00.837Z,13.70
2022-09-20T22:29:06.375Z,13.50
2022-09-20T22:34:09.291Z,13.50
2022-09-20T22:39:13.404Z,13.50
2022-09-20T22:44:17.804Z,13.40
2022-09-20T22:49:20.705Z,13.30
2022-09-20T22:54:23.590Z,13.30
2022-09-20T22:59:27.824Z,13.20
2022-09-20T23:04:30.844Z,13.20
2022-09-20T23:09:33.710Z,13.10
2022-09-20T23:14:38.339Z,13.10
2022-09-20T23:19:41.227Z,13.00
2022-09-20T23:24:44.442Z,13.00
2022-09-20T23:29:48.660Z,12.90
2022-09-20T23:34:51.887Z,12.80
2022-09-20T23:39:54.781Z,12.70
2022-09-20T23:44:58.996Z,12.70
2022-09-20T23:50:01.911Z,12.60
2022-09-20T23:55:05.480Z,12.60
